createdAt,value
2024-02-12T00:00:41.507Z,100.00
2024-02-12T00:01:48.887Z,100.00
2024-02-12T00:02:51.486Z,100.00
2024-02-12T00:03:54.853Z,100.00
2024-02-12T00:05:00.622Z,100.00
2024-02-12T00:06:04.195Z,100.00
2024-02-12T00:07:06.771Z,100.00
2024-02-12T00:08:12.467Z,100.00
2024-02-12T00:09:15.715Z,100.00
2024-02-12T00:10:19.190Z,100.00
2024-02-12T00:11:22.868Z,100.00
2024-02-12T00:12:25.506Z,100.00
2024-02-12T00:13:29.478Z,100.00
2024-02-12T00:14:32.012Z,100.00
2024-02-12T00:15:35.710Z,100.00
2024-02-12T00:16:41.837Z,100.00
2024-02-12T00:17:45.451Z,100.00
2024-02-12T00:18:48.061Z,100.00
2024-02-12T00:19:51.448Z,100.00
2024-02-12T00:20:55.098Z,100.00
2024-02-12T00:22:01.446Z,100.00
2024-02-12T00:23:06.358Z,100.00
2024-02-12T00:24:12.098Z,100.00
2024-02-12T00:25:15.652Z,100.00
2024-02-12T00:26:21.361Z,100.00
2024-02-12T00:27:23.767Z,100.00
2024-02-12T00:28:30.081Z,100.00
2024-02-12T00:29:32.732Z,100.00
2024-02-12T00:30:36.896Z,100.00
2024-02-12T00:31:39.734Z,100.00
2024-02-12T00:32:44.832Z,100.00
2024-02-12T00:33:50.316Z,100.00
2024-02-12T00:34:52.861Z,100.00
2024-02-12T00:35:58.662Z,100.00
2024-02-12T00:37:01.342Z,100.00
2024-02-12T00:38:05.446Z,100.00
2024-02-12T00:39:10.990Z,100.00
2024-02-12T00:40:15.735Z,100.00
2024-02-12T00:41:22.487Z,100.00
2024-02-12T00:42:25.975Z,100.00
2024-02-12T00:43:28.573Z,100.00
2024-02-12T00:44:35.007Z,100.00
2024-02-12T00:45:37.406Z,100.00
2024-02-12T00:46:40.687Z,100.00
2024-02-12T00:47:43.168Z,100.00
2024-02-12T00:48:48.126Z,100.00
2024-02-12T00:49:50.653Z,100.00
2024-02-12T00:50:54.153Z,100.00
2024-02-12T00:51:57.833Z,100.00
2024-02-12T00:53:01.737Z,100.00
2024-02-12T00:54:04.548Z,100.00
2024-02-12T00:55:08.590Z,100.00
2024-02-12T00:56:12.903Z,100.00
2024-02-12T00:57:15.546Z,100.00
2024-02-12T00:58:19.472Z,100.00
2024-02-12T00:59:25.453Z,100.00
2024-02-12T01:00:28.793Z,100.00
2024-02-12T01:01:31.205Z,100.00
2024-02-12T01:02:34.851Z,100.00
2024-02-12T01:03:37.393Z,100.00
2024-02-12T01:04:40.902Z,100.00
2024-02-12T01:05:43.323Z,100.00
2024-02-12T01:06:46.806Z,100.00
2024-02-12T01:07:51.319Z,100.00
2024-02-12T01:08:54.872Z,100.00
2024-02-12T01:09:57.433Z,100.00
2024-02-12T01:11:02.234Z,100.00
2024-02-12T01:12:05.485Z,100.00
2024-02-12T01:13:09.226Z,100.00
2024-02-12T01:14:11.809Z,100.00
2024-02-12T01:15:16.917Z,100.00
2024-02-12T01:16:19.734Z,100.00
2024-02-12T01:17:24.276Z,100.00
2024-02-12T01:18:27.053Z,100.00
2024-02-12T01:19:35.134Z,100.00
2024-02-12T01:20:37.854Z,100.00
2024-02-12T01:21:41.022Z,100.00
2024-02-12T01:22:44.421Z,100.00
2024-02-12T01:23:48.206Z,100.00
2024-02-12T01:24:52.678Z,100.00
2024-02-12T01:25:57.219Z,100.00
2024-02-12T01:27:00.831Z,100.00
2024-02-12T01:28:03.454Z,100.00
2024-02-12T01:29:07.416Z,100.00
2024-02-12T01:30:10.949Z,100.00
2024-02-12T01:31:19.711Z,100.00
2024-02-12T01:32:23.884Z,99.61
2024-02-12T01:33:27.909Z,100.00
2024-02-12T01:34:30.476Z,97.36
2024-02-12T01:35:34.531Z,97.05
2024-02-12T01:36:38.210Z,92.92
2024-02-12T01:37:42.718Z,93.52
2024-02-12T01:38:45.856Z,97.70
2024-02-12T01:39:52.281Z,97.55
2024-02-12T01:40:54.920Z,99.52
2024-02-12T01:41:58.576Z,97.97
2024-02-12T01:43:01.036Z,95.19
2024-02-12T01:44:05.559Z,88.83
2024-02-12T01:45:17.803Z,87.11
2024-02-12T01:46:22.180Z,82.44
2024-02-12T01:47:25.723Z,88.26
2024-02-12T01:48:31.986Z,94.99
2024-02-12T01:49:34.752Z,99.36
2024-02-12T01:50:39.748Z,100.00
2024-02-12T01:51:44.400Z,100.00
2024-02-12T01:52:51.691Z,100.00
2024-02-12T01:54:00.838Z,100.00
2024-02-12T01:55:08.185Z,100.00
2024-02-12T01:56:11.697Z,100.00
2024-02-12T01:57:16.089Z,100.00
2024-02-12T01:58:19.772Z,100.00
2024-02-12T01:59:24.100Z,100.00
2024-02-12T02:00:28.555Z,100.00
2024-02-12T02:01:32.709Z,100.00
2024-02-12T02:02:35.424Z,100.00
2024-02-12T02:03:40.723Z,100.00
2024-02-12T02:04:43.537Z,100.00
2024-02-12T02:05:47.246Z,100.00
2024-02-12T02:06:54.165Z,100.00
2024-02-12T02:08:02.400Z,100.00
2024-02-12T02:09:05.361Z,100.00
2024-02-12T02:10:14.484Z,100.00
2024-02-12T02:11:17.412Z,96.93
2024-02-12T02:12:23.317Z,98.14
2024-02-12T02:13:25.930Z,99.34
2024-02-12T02:14:29.524Z,100.00
2024-02-12T02:15:32.035Z,98.02
2024-02-12T02:16:37.314Z,100.00
2024-02-12T02:17:41.076Z,100.00
2024-02-12T02:18:47.238Z,94.65
2024-02-12T02:19:51.335Z,91.35
2024-02-12T02:20:53.750Z,91.60
2024-02-12T02:21:57.161Z,94.02
2024-02-12T02:22:59.881Z,100.00
2024-02-12T02:24:05.104Z,100.00
2024-02-12T02:25:11.632Z,100.00
2024-02-12T02:26:15.701Z,100.00
2024-02-12T02:27:18.439Z,100.00
2024-02-12T02:28:22.692Z,96.92
2024-02-12T02:29:25.233Z,96.33
2024-02-12T02:30:28.783Z,95.41
2024-02-12T02:31:33.279Z,93.21
2024-02-12T02:32:37.835Z,93.17
2024-02-12T02:33:40.870Z,92.10
2024-02-12T02:34:45.319Z,92.82
2024-02-12T02:35:49.296Z,93.31
2024-02-12T02:36:52.722Z,94.96
2024-02-12T02:37:55.977Z,96.28
2024-02-12T02:39:04.186Z,96.65
2024-02-12T02:40:10.199Z,96.54
2024-02-12T02:41:13.705Z,96.22
2024-02-12T02:42:16.590Z,94.88
2024-02-12T02:43:19.939Z,89.40
2024-02-12T02:44:22.470Z,87.12
2024-02-12T02:45:26.708Z,84.04
2024-02-12T02:46:29.260Z,83.72
2024-02-12T02:47:31.729Z,80.86
2024-02-12T02:48:36.493Z,79.76
2024-02-12T02:49:39.745Z,79.57
2024-02-12T02:50:46.929Z,79.89
2024-02-12T02:51:49.496Z,81.86
2024-02-12T02:52:53.877Z,81.55
2024-02-12T02:53:56.498Z,83.75
2024-02-12T02:54:59.850Z,83.04
2024-02-12T02:56:03.908Z,82.29
2024-02-12T02:57:09.225Z,80.89
2024-02-12T02:58:11.596Z,78.70
2024-02-12T02:59:14.898Z,77.17
2024-02-12T03:00:17.783Z,77.54
2024-02-12T03:01:21.763Z,77.79
2024-02-12T03:02:25.033Z,76.41
2024-02-12T03:03:29.665Z,76.91
2024-02-12T03:04:35.402Z,76.27
2024-02-12T03:05:40.023Z,75.13
2024-02-12T03:06:42.601Z,75.31
2024-02-12T03:07:47.215Z,75.48
2024-02-12T03:08:50.435Z,75.05
2024-02-12T03:09:53.806Z,74.62
2024-02-12T03:10:56.737Z,74.04
2024-02-12T03:12:01.672Z,74.70
2024-02-12T03:13:06.432Z,74.26
2024-02-12T03:14:10.974Z,76.06
2024-02-12T03:15:15.987Z,74.75
2024-02-12T03:16:19.660Z,73.07
2024-02-12T03:17:22.129Z,73.18
2024-02-12T03:18:25.773Z,74.07
2024-02-12T03:19:28.282Z,74.83
2024-02-12T03:20:31.669Z,73.96
2024-02-12T03:21:35.050Z,75.24
2024-02-12T03:22:38.645Z,73.43
2024-02-12T03:23:41.928Z,72.54
2024-02-12T03:24:44.477Z,73.52
2024-02-12T03:25:47.861Z,72.11
2024-02-12T03:26:52.186Z,75.94
2024-02-12T03:27:57.004Z,73.28
2024-02-12T03:28:59.451Z,72.51
2024-02-12T03:30:03.760Z,69.75
2024-02-12T03:31:06.604Z,70.88
2024-02-12T03:32:10.276Z,72.62
2024-02-12T03:33:12.792Z,71.50
2024-02-12T03:34:16.954Z,71.52
2024-02-12T03:35:20.064Z,74.59
2024-02-12T03:36:24.053Z,78.83
2024-02-12T03:37:27.487Z,86.13
2024-02-12T03:38:32.069Z,87.75
2024-02-12T03:39:34.358Z,85.62
2024-02-12T03:40:37.746Z,82.99
2024-02-12T03:41:40.598Z,80.34
2024-02-12T03:42:44.183Z,79.87
2024-02-12T03:43:48.207Z,78.99
2024-02-12T03:44:51.905Z,78.92
2024-02-12T03:45:57.310Z,77.43
2024-02-12T03:47:00.743Z,76.19
2024-02-12T03:48:27.423Z,75.40
2024-02-12T03:49:47.841Z,75.51
2024-02-12T03:51:08.621Z,74.85
2024-02-12T03:52:29.352Z,73.44
2024-02-12T03:53:50.108Z,72.48
2024-02-12T03:55:10.691Z,72.68
2024-02-12T03:56:31.469Z,72.91
2024-02-12T03:57:54.477Z,73.04
2024-02-12T03:59:17.434Z,73.06
2024-02-12T04:00:20.932Z,73.48
2024-02-12T04:01:23.353Z,73.08
2024-02-12T04:02:29.281Z,73.19
2024-02-12T04:03:31.818Z,73.42
2024-02-12T04:04:35.291Z,73.85
2024-02-12T04:05:38.843Z,74.56
2024-02-12T04:06:41.382Z,74.38
2024-02-12T04:07:44.940Z,73.13
2024-02-12T04:08:49.075Z,71.87
2024-02-12T04:09:53.051Z,72.58
2024-02-12T04:10:56.697Z,71.95
2024-02-12T04:11:59.354Z,71.08
2024-02-12T04:13:05.001Z,70.84
2024-02-12T04:14:11.092Z,71.51
2024-02-12T04:15:17.233Z,69.99
2024-02-12T04:16:19.928Z,70.09
2024-02-12T04:17:23.518Z,70.04
2024-02-12T04:18:26.382Z,69.91
2024-02-12T04:19:29.961Z,70.63
2024-02-12T04:20:32.894Z,69.95
2024-02-12T04:21:36.872Z,69.57
2024-02-12T04:22:40.435Z,69.48
2024-02-12T04:23:44.170Z,69.50
2024-02-12T04:24:46.637Z,69.41
2024-02-12T04:25:52.263Z,69.76
2024-02-12T04:26:54.736Z,68.58
2024-02-12T04:27:59.562Z,69.48
2024-02-12T04:29:03.058Z,69.41
2024-02-12T04:30:09.368Z,70.11
2024-02-12T04:31:13.668Z,69.89
2024-02-12T04:32:17.455Z,69.55
2024-02-12T04:33:21.793Z,70.52
2024-02-12T04:34:24.714Z,70.73
2024-02-12T04:35:28.424Z,70.86
2024-02-12T04:36:32.687Z,72.05
2024-02-12T04:37:36.457Z,72.56
2024-02-12T04:38:39.033Z,72.82
2024-02-12T04:39:41.627Z,73.76
2024-02-12T04:40:45.270Z,74.06
2024-02-12T04:41:47.837Z,74.92
2024-02-12T04:42:51.328Z,75.17
2024-02-12T04:43:53.820Z,76.08
2024-02-12T04:44:57.216Z,77.31
2024-02-12T04:46:01.072Z,77.37
2024-02-12T04:47:05.733Z,76.99
2024-02-12T04:48:12.959Z,76.72
2024-02-12T04:49:17.072Z,77.43
2024-02-12T04:50:20.015Z,77.90
2024-02-12T04:51:23.931Z,77.80
2024-02-12T04:52:27.231Z,78.89
2024-02-12T04:53:30.539Z,81.18
2024-02-12T04:54:34.408Z,81.09
2024-02-12T04:55:37.805Z,80.69
2024-02-12T04:56:41.816Z,80.99
2024-02-12T04:57:45.180Z,80.61
2024-02-12T04:58:47.286Z,81.14
2024-02-12T04:59:50.642Z,81.14
2024-02-12T05:00:53.399Z,81.30
2024-02-12T05:01:58.242Z,82.37
2024-02-12T05:03:00.773Z,83.86
2024-02-12T05:04:03.241Z,84.57
2024-02-12T05:05:07.915Z,83.10
2024-02-12T05:06:17.149Z,82.46
2024-02-12T05:07:20.634Z,82.27
2024-02-12T05:08:23.097Z,83.64
2024-02-12T05:09:26.868Z,83.64
2024-02-12T05:10:29.210Z,83.44
2024-02-12T05:11:33.748Z,85.22
2024-02-12T05:12:36.579Z,87.11
2024-02-12T05:13:40.386Z,88.76
2024-02-12T05:14:42.751Z,91.56
2024-02-12T05:15:46.228Z,93.19
2024-02-12T05:16:50.369Z,90.86
2024-02-12T05:17:56.791Z,92.20
2024-02-12T05:19:17.771Z,90.96
2024-02-12T05:20:37.945Z,91.32
2024-02-12T05:21:59.697Z,92.53
2024-02-12T05:23:03.387Z,91.85
2024-02-12T05:24:06.508Z,92.97
2024-02-12T05:25:09.430Z,95.54
2024-02-12T05:26:13.364Z,94.79
2024-02-12T05:27:16.043Z,96.34
2024-02-12T05:28:19.630Z,96.82
2024-02-12T05:29:22.215Z,95.08
2024-02-12T05:30:25.638Z,95.83
2024-02-12T05:31:28.359Z,95.33
2024-02-12T05:32:32.110Z,95.83
2024-02-12T05:33:37.627Z,93.98
2024-02-12T05:34:42.578Z,93.17
2024-02-12T05:35:44.963Z,93.27
2024-02-12T05:36:48.301Z,93.72
2024-02-12T05:37:50.617Z,94.89
2024-02-12T05:38:54.005Z,95.07
2024-02-12T05:39:56.514Z,94.89
2024-02-12T05:41:00.119Z,95.37
2024-02-12T05:42:02.550Z,93.39
2024-02-12T05:43:06.198Z,93.85
2024-02-12T05:44:08.792Z,94.38
2024-02-12T05:45:12.484Z,92.87
2024-02-12T05:46:14.944Z,92.68
2024-02-12T05:47:19.967Z,90.65
2024-02-12T05:48:22.866Z,90.71
2024-02-12T05:49:30.281Z,91.40
2024-02-12T05:50:32.713Z,91.44
2024-02-12T05:51:36.156Z,92.20
2024-02-12T05:52:40.788Z,91.39
2024-02-12T05:53:44.417Z,89.97
2024-02-12T05:54:47.723Z,90.19
2024-02-12T05:55:51.313Z,89.94
2024-02-12T05:56:53.881Z,88.01
2024-02-12T05:57:57.208Z,87.62
2024-02-12T05:58:59.558Z,86.42
2024-02-12T06:00:02.919Z,85.70
2024-02-12T06:01:05.626Z,83.63
2024-02-12T06:02:08.976Z,82.27
2024-02-12T06:03:11.332Z,82.66
2024-02-12T06:04:15.017Z,81.64
2024-02-12T06:05:18.858Z,81.51
2024-02-12T06:06:22.524Z,81.52
2024-02-12T06:07:25.245Z,81.64
2024-02-12T06:08:29.109Z,81.99
2024-02-12T06:09:31.748Z,81.62
2024-02-12T06:10:35.306Z,82.49
2024-02-12T06:11:38.826Z,82.60
2024-02-12T06:12:42.221Z,82.68
2024-02-12T06:13:44.674Z,82.75
2024-02-12T06:14:49.290Z,83.37
2024-02-12T06:15:51.704Z,83.17
2024-02-12T06:16:56.310Z,83.30
2024-02-12T06:17:58.644Z,81.65
2024-02-12T06:19:03.195Z,82.16
2024-02-12T06:20:07.487Z,82.61
2024-02-12T06:21:12.328Z,82.61
2024-02-12T06:22:16.039Z,82.63
2024-02-12T06:23:20.907Z,82.35
2024-02-12T06:24:23.257Z,82.68
2024-02-12T06:25:26.441Z,82.61
2024-02-12T06:26:29.103Z,82.80
2024-02-12T06:27:32.467Z,82.39
2024-02-12T06:28:35.908Z,82.61
2024-02-12T06:29:40.239Z,82.83
2024-02-12T06:30:42.845Z,82.87
2024-02-12T06:31:46.814Z,83.25
2024-02-12T06:32:50.940Z,83.14
2024-02-12T06:33:55.250Z,83.41
2024-02-12T06:34:58.962Z,83.51
2024-02-12T06:36:03.376Z,84.14
2024-02-12T06:37:08.768Z,84.24
2024-02-12T06:38:11.111Z,84.97
2024-02-12T06:39:14.603Z,84.89
2024-02-12T06:40:17.168Z,85.10
2024-02-12T06:41:21.824Z,85.30
2024-02-12T06:42:24.166Z,85.88
2024-02-12T06:43:27.685Z,85.63
2024-02-12T06:44:31.285Z,86.36
2024-02-12T06:45:35.174Z,87.30
2024-02-12T06:46:37.499Z,88.04
2024-02-12T06:47:41.690Z,87.90
2024-02-12T06:48:47.093Z,87.86
2024-02-12T06:49:50.465Z,88.04
2024-02-12T06:50:53.040Z,88.42
2024-02-12T06:51:56.516Z,88.73
2024-02-12T06:53:00.378Z,88.29
2024-02-12T06:54:03.999Z,88.30
2024-02-12T06:55:10.413Z,88.72
2024-02-12T06:56:14.255Z,89.08
2024-02-12T06:57:17.389Z,89.00
2024-02-12T06:58:20.984Z,88.84
2024-02-12T06:59:23.535Z,89.05
2024-02-12T07:00:27.256Z,88.80
2024-02-12T07:01:30.232Z,88.83
2024-02-12T07:02:35.348Z,88.88
2024-02-12T07:03:37.887Z,88.37
2024-02-12T07:04:41.243Z,89.29
2024-02-12T07:05:43.881Z,89.64
2024-02-12T07:06:47.321Z,89.88
2024-02-12T07:07:49.746Z,90.18
2024-02-12T07:08:54.695Z,89.66
2024-02-12T07:09:57.044Z,89.73
2024-02-12T07:11:00.327Z,89.83
2024-02-12T07:12:02.687Z,90.22
2024-02-12T07:13:06.336Z,89.51
2024-02-12T07:14:08.825Z,90.07
2024-02-12T07:15:15.849Z,90.03
2024-02-12T07:16:21.381Z,90.09
2024-02-12T07:17:25.321Z,90.32
2024-02-12T07:18:27.851Z,89.62
2024-02-12T07:19:34.169Z,89.81
2024-02-12T07:20:36.997Z,89.15
2024-02-12T07:21:40.884Z,89.47
2024-02-12T07:22:44.528Z,87.82
2024-02-12T07:23:49.166Z,87.91
2024-02-12T07:24:53.975Z,87.26
2024-02-12T07:25:56.403Z,87.78
2024-02-12T07:26:59.716Z,87.89
2024-02-12T07:28:02.598Z,87.26
2024-02-12T07:29:06.136Z,86.64
2024-02-12T07:30:09.626Z,86.57
2024-02-12T07:31:14.592Z,86.96
2024-02-12T07:32:17.487Z,87.39
2024-02-12T07:33:21.761Z,88.02
2024-02-12T07:34:24.215Z,88.57
2024-02-12T07:35:30.670Z,87.97
2024-02-12T07:36:33.372Z,87.90
2024-02-12T07:37:38.284Z,87.83
2024-02-12T07:38:41.592Z,87.97
2024-02-12T07:39:45.342Z,86.41
2024-02-12T07:40:51.158Z,87.24
2024-02-12T07:41:55.371Z,89.09
2024-02-12T07:42:57.677Z,89.25
2024-02-12T07:44:01.286Z,90.45
2024-02-12T07:45:04.194Z,91.40
2024-02-12T07:46:07.463Z,92.05
2024-02-12T07:47:12.109Z,91.83
2024-02-12T07:48:16.731Z,91.98
2024-02-12T07:49:20.469Z,92.08
2024-02-12T07:50:24.285Z,92.28
2024-02-12T07:51:27.805Z,91.38
2024-02-12T07:52:31.388Z,92.14
2024-02-12T07:53:33.884Z,90.84
2024-02-12T07:54:39.581Z,91.32
2024-02-12T07:55:42.464Z,92.17
2024-02-12T07:56:48.919Z,90.10
2024-02-12T07:57:51.215Z,89.86
2024-02-12T07:58:56.013Z,90.71
2024-02-12T07:59:58.521Z,92.30
2024-02-12T08:01:01.799Z,93.26
2024-02-12T08:02:04.572Z,93.18
2024-02-12T08:03:07.888Z,94.83
2024-02-12T08:04:10.252Z,96.50
2024-02-12T08:05:13.855Z,98.88
2024-02-12T08:06:17.061Z,100.00
2024-02-12T08:07:22.541Z,99.63
2024-02-12T08:08:27.268Z,99.19
2024-02-12T08:09:30.676Z,99.94
2024-02-12T08:10:33.055Z,100.00
2024-02-12T08:11:36.762Z,98.96
2024-02-12T08:12:40.639Z,97.39
2024-02-12T08:13:44.689Z,98.46
2024-02-12T08:14:47.365Z,97.07
2024-02-12T08:15:50.787Z,94.08
2024-02-12T08:16:53.165Z,92.27
2024-02-12T08:17:56.659Z,89.44
2024-02-12T08:18:59.179Z,85.36
2024-02-12T08:20:05.525Z,85.44
2024-02-12T08:21:08.250Z,80.87
2024-02-12T08:22:12.140Z,81.16
2024-02-12T08:23:14.634Z,80.38
2024-02-12T08:24:18.746Z,79.54
2024-02-12T08:25:21.610Z,78.21
2024-02-12T08:26:25.357Z,76.14
2024-02-12T08:27:31.613Z,73.26
2024-02-12T08:28:36.835Z,72.76
2024-02-12T08:29:39.209Z,72.23
2024-02-12T08:30:42.602Z,74.48
2024-02-12T08:31:44.918Z,75.73
2024-02-12T08:32:48.277Z,75.22
2024-02-12T08:33:50.637Z,75.13
2024-02-12T08:34:54.119Z,74.32
2024-02-12T08:35:56.595Z,73.93
2024-02-12T08:37:00.043Z,78.00
2024-02-12T08:38:02.544Z,78.20
2024-02-12T08:39:05.778Z,78.27
2024-02-12T08:40:12.165Z,76.96
2024-02-12T08:41:24.763Z,74.50
2024-02-12T08:42:28.602Z,74.15
2024-02-12T08:43:31.805Z,72.07
2024-02-12T08:44:37.419Z,72.29
2024-02-12T08:45:41.294Z,73.57
2024-02-12T08:46:45.998Z,73.92
2024-02-12T08:47:48.645Z,73.36
2024-02-12T08:48:52.424Z,73.31
2024-02-12T08:49:55.335Z,70.45
2024-02-12T08:50:59.799Z,70.00
2024-02-12T08:52:02.770Z,70.60
2024-02-12T08:53:06.516Z,72.20
2024-02-12T08:54:08.718Z,72.60
2024-02-12T08:55:14.126Z,72.18
2024-02-12T08:56:19.388Z,71.26
2024-02-12T08:57:23.187Z,71.38
2024-02-12T08:58:25.454Z,72.56
2024-02-12T08:59:28.844Z,73.41
2024-02-12T09:00:32.569Z,73.61
2024-02-12T09:01:36.317Z,73.32
2024-02-12T09:02:38.882Z,71.86
2024-02-12T09:03:44.630Z,73.38
2024-02-12T09:04:48.067Z,72.24
2024-02-12T09:05:51.795Z,74.05
2024-02-12T09:06:54.285Z,73.62
2024-02-12T09:07:57.779Z,71.95
2024-02-12T09:09:00.371Z,67.66
2024-02-12T09:10:04.534Z,62.17
2024-02-12T09:11:07.163Z,60.80
2024-02-12T09:12:11.207Z,61.23
2024-02-12T09:13:13.508Z,60.44
2024-02-12T09:14:18.522Z,62.54
2024-02-12T09:15:21.854Z,64.08
2024-02-12T09:16:27.420Z,63.32
2024-02-12T09:17:30.737Z,62.97
2024-02-12T09:18:37.843Z,63.84
2024-02-12T09:19:40.281Z,64.69
2024-02-12T09:20:43.929Z,62.82
2024-02-12T09:21:47.308Z,62.28
2024-02-12T09:22:50.638Z,63.39
2024-02-12T09:23:52.996Z,63.63
2024-02-12T09:24:56.287Z,64.43
2024-02-12T09:25:58.787Z,62.35
2024-02-12T09:27:02.102Z,65.88
2024-02-12T09:28:06.688Z,66.69
2024-02-12T09:29:09.670Z,66.70
2024-02-12T09:30:13.480Z,68.31
2024-02-12T09:31:15.939Z,62.44
2024-02-12T09:32:20.506Z,60.19
2024-02-12T09:33:23.020Z,57.23
2024-02-12T09:34:26.549Z,56.65
2024-02-12T09:35:29.134Z,61.46
2024-02-12T09:36:32.557Z,62.26
2024-02-12T09:37:35.645Z,62.79
2024-02-12T09:38:39.449Z,61.38
2024-02-12T09:39:42.208Z,56.00
2024-02-12T09:40:46.911Z,54.84
2024-02-12T09:41:49.596Z,54.47
2024-02-12T09:42:55.796Z,53.67
2024-02-12T09:44:00.674Z,57.56
2024-02-12T09:45:08.927Z,55.55
2024-02-12T09:46:16.582Z,56.25
2024-02-12T09:47:20.579Z,57.22
2024-02-12T09:48:26.722Z,56.30
2024-02-12T09:49:29.204Z,58.87
2024-02-12T09:50:34.204Z,58.92
2024-02-12T09:51:37.284Z,60.70
2024-02-12T09:52:42.288Z,60.59
2024-02-12T09:53:45.315Z,61.33
2024-02-12T09:54:48.917Z,62.48
2024-02-12T09:55:53.432Z,60.72
2024-02-12T09:56:59.008Z,59.29
2024-02-12T09:58:01.477Z,58.10
2024-02-12T09:59:05.044Z,58.99
2024-02-12T10:00:09.072Z,61.18
2024-02-12T10:01:13.598Z,61.78
2024-02-12T10:02:16.443Z,60.94
2024-02-12T10:03:21.649Z,59.15
2024-02-12T10:04:24.893Z,59.14
2024-02-12T10:05:28.379Z,57.67
2024-02-12T10:06:32.099Z,57.12
2024-02-12T10:07:39.808Z,55.86
2024-02-12T10:08:43.766Z,54.05
2024-02-12T10:09:47.755Z,54.49
2024-02-12T10:10:52.408Z,54.75
2024-02-12T10:11:56.056Z,56.35
2024-02-12T10:12:59.485Z,54.85
2024-02-12T10:14:05.747Z,55.97
2024-02-12T10:15:14.510Z,57.11
2024-02-12T10:16:17.006Z,58.89
2024-02-12T10:17:20.895Z,59.52
2024-02-12T10:18:25.055Z,61.84
2024-02-12T10:19:28.527Z,59.35
2024-02-12T10:20:31.159Z,60.40
2024-02-12T10:21:34.762Z,61.11
2024-02-12T10:22:38.313Z,59.39
2024-02-12T10:23:41.866Z,59.37
2024-02-12T10:24:47.228Z,63.48
2024-02-12T10:25:52.872Z,63.69
2024-02-12T10:26:55.749Z,59.94
2024-02-12T10:27:59.604Z,57.71
2024-02-12T10:29:03.056Z,60.37
2024-02-12T10:30:06.792Z,59.31
2024-02-12T10:31:10.734Z,59.80
2024-02-12T10:32:13.154Z,57.73
2024-02-12T10:33:18.502Z,58.78
2024-02-12T10:34:26.618Z,59.56
2024-02-12T10:35:31.537Z,57.89
2024-02-12T10:36:36.539Z,57.42
2024-02-12T10:37:40.089Z,60.22
2024-02-12T10:38:42.995Z,64.33
2024-02-12T10:39:46.735Z,66.07
2024-02-12T10:41:05.398Z,63.36
2024-02-12T10:42:10.593Z,64.44
2024-02-12T10:43:17.491Z,64.65
2024-02-12T10:44:21.250Z,64.07
2024-02-12T10:45:23.739Z,66.55
2024-02-12T10:46:29.406Z,70.63
2024-02-12T10:47:32.230Z,71.42
2024-02-12T10:48:39.971Z,69.46
2024-02-12T10:49:44.377Z,70.71
2024-02-12T10:50:49.295Z,72.51
2024-02-12T10:51:55.946Z,72.26
2024-02-12T10:53:01.334Z,74.13
2024-02-12T10:54:04.092Z,72.31
2024-02-12T10:55:10.792Z,74.33
2024-02-12T10:56:13.766Z,70.39
2024-02-12T10:57:18.358Z,71.94
2024-02-12T10:58:20.989Z,71.63
2024-02-12T10:59:24.643Z,68.97
2024-02-12T11:00:27.885Z,67.60
2024-02-12T11:01:31.436Z,70.03
2024-02-12T11:02:45.095Z,69.60
2024-02-12T11:03:50.406Z,68.57
2024-02-12T11:04:57.389Z,65.89
2024-02-12T11:06:02.405Z,60.63
2024-02-12T11:07:10.811Z,61.03
2024-02-12T11:08:20.417Z,60.73
2024-02-12T11:09:32.098Z,60.73
2024-02-12T11:10:36.323Z,59.45
2024-02-12T11:11:47.023Z,57.39
2024-02-12T11:12:51.391Z,58.23
2024-02-12T11:14:02.533Z,59.34
2024-02-12T11:15:11.478Z,61.33
2024-02-12T11:16:15.948Z,60.86
2024-02-12T11:17:24.393Z,59.58
2024-02-12T11:18:27.759Z,58.79
2024-02-12T11:19:32.522Z,59.59
2024-02-12T11:20:36.178Z,62.88
2024-02-12T11:21:40.073Z,64.66
2024-02-12T11:22:46.276Z,64.14
2024-02-12T11:23:52.219Z,63.20
2024-02-12T11:24:58.507Z,63.03
2024-02-12T11:26:05.547Z,64.21
2024-02-12T11:27:10.302Z,62.88
2024-02-12T11:28:15.961Z,62.11
2024-02-12T11:29:20.094Z,58.39
2024-02-12T11:30:22.486Z,53.55
2024-02-12T11:31:28.046Z,51.99
2024-02-12T11:32:31.878Z,52.51
2024-02-12T11:33:35.284Z,54.45
2024-02-12T11:34:37.635Z,59.86
2024-02-12T11:35:42.727Z,59.81
2024-02-12T11:36:45.424Z,62.04
2024-02-12T11:37:57.485Z,60.89
2024-02-12T11:38:59.818Z,63.03
2024-02-12T11:40:04.891Z,53.92
2024-02-12T11:41:07.357Z,56.22
2024-02-12T11:42:11.330Z,59.82
2024-02-12T11:43:13.833Z,56.10
2024-02-12T11:44:18.025Z,56.06
2024-02-12T11:45:21.579Z,53.96
2024-02-12T11:46:25.956Z,52.31
2024-02-12T11:47:29.534Z,54.62
2024-02-12T11:48:33.556Z,56.35
2024-02-12T11:49:36.362Z,53.98
2024-02-12T11:50:40.138Z,54.49
2024-02-12T11:51:43.982Z,52.85
2024-02-12T11:52:48.092Z,55.52
2024-02-12T11:53:53.902Z,58.07
2024-02-12T11:54:58.074Z,59.52
2024-02-12T11:56:02.311Z,60.23
2024-02-12T11:57:08.144Z,61.45
2024-02-12T11:58:10.700Z,65.87
2024-02-12T11:59:14.782Z,66.55
2024-02-12T12:00:18.022Z,67.05
2024-02-12T12:01:21.564Z,67.48
2024-02-12T12:02:24.124Z,68.60
2024-02-12T12:03:27.711Z,67.90
2024-02-12T12:04:34.904Z,64.04
2024-02-12T12:05:41.913Z,61.09
2024-02-12T12:06:46.335Z,58.56
2024-02-12T12:07:50.254Z,59.70
2024-02-12T12:08:53.999Z,64.51
2024-02-12T12:10:03.208Z,69.15
2024-02-12T12:11:06.764Z,72.62
2024-02-12T12:12:11.290Z,69.86
2024-02-12T12:13:15.976Z,69.81
2024-02-12T12:14:19.808Z,72.83
2024-02-12T12:15:22.384Z,72.23
2024-02-12T12:16:26.744Z,71.37
2024-02-12T12:17:33.533Z,74.79
2024-02-12T12:18:39.119Z,73.10
2024-02-12T12:19:42.331Z,73.90
2024-02-12T12:20:46.261Z,74.56
2024-02-12T12:21:52.063Z,73.73
2024-02-12T12:22:56.235Z,74.45
2024-02-12T12:23:59.639Z,75.84
2024-02-12T12:25:03.023Z,78.47
2024-02-12T12:26:06.380Z,78.81
2024-02-12T12:27:10.777Z,81.53
2024-02-12T12:28:13.058Z,79.43
2024-02-12T12:29:27.541Z,75.14
2024-02-12T12:30:31.034Z,67.34
2024-02-12T12:31:36.193Z,65.45
2024-02-12T12:32:38.501Z,63.78
2024-02-12T12:33:41.849Z,63.51
2024-02-12T12:34:44.152Z,61.11
2024-02-12T12:35:47.557Z,58.32
2024-02-12T12:36:51.255Z,56.50
2024-02-12T12:37:54.789Z,60.93
2024-02-12T12:38:56.902Z,65.95
2024-02-12T12:40:00.067Z,70.07
2024-02-12T12:41:02.916Z,70.88
2024-02-12T12:42:08.961Z,69.10
2024-02-12T12:43:13.251Z,69.41
2024-02-12T12:44:18.173Z,68.42
2024-02-12T12:45:22.674Z,68.63
2024-02-12T12:46:26.060Z,71.50
2024-02-12T12:47:28.320Z,74.88
2024-02-12T12:48:32.773Z,72.87
2024-02-12T12:49:35.161Z,71.40
2024-02-12T12:50:38.416Z,70.36
2024-02-12T12:51:40.601Z,75.10
2024-02-12T12:52:44.929Z,79.06
2024-02-12T12:53:48.319Z,82.06
2024-02-12T12:54:50.544Z,82.68
2024-02-12T12:55:52.716Z,84.73
2024-02-12T12:56:56.010Z,85.73
2024-02-12T12:57:58.171Z,87.42
2024-02-12T12:59:01.034Z,87.95
2024-02-12T13:00:08.401Z,88.45
2024-02-12T13:01:12.943Z,95.32
2024-02-12T13:02:18.004Z,90.50
2024-02-12T13:03:20.219Z,79.88
2024-02-12T13:04:24.482Z,74.74
2024-02-12T13:05:26.801Z,71.17
2024-02-12T13:06:31.701Z,60.33
2024-02-12T13:07:36.087Z,52.87
2024-02-12T13:08:43.805Z,49.06
2024-02-12T13:09:46.955Z,46.34
2024-02-12T13:10:53.552Z,45.68
2024-02-12T13:11:56.583Z,45.38
2024-02-12T13:12:59.825Z,43.76
2024-02-12T13:14:06.177Z,42.82
2024-02-12T13:15:11.802Z,42.77
2024-02-12T13:16:14.510Z,43.06
2024-02-12T13:17:17.859Z,43.00
2024-02-12T13:18:27.708Z,43.40
2024-02-12T13:19:32.914Z,42.67
2024-02-12T13:20:35.985Z,42.57
2024-02-12T13:21:39.928Z,42.19
2024-02-12T13:22:51.417Z,41.12
2024-02-12T13:23:56.136Z,41.45
2024-02-12T13:25:07.313Z,41.14
2024-02-12T13:26:13.572Z,41.62
2024-02-12T13:27:16.584Z,41.46
2024-02-12T13:28:20.257Z,41.26
2024-02-12T13:29:25.702Z,40.61
2024-02-12T13:30:31.133Z,41.34
2024-02-12T13:31:33.522Z,41.41
2024-02-12T13:32:36.796Z,41.77
2024-02-12T13:33:39.391Z,41.37
2024-02-12T13:34:42.749Z,40.58
2024-02-12T13:35:45.196Z,40.44
2024-02-12T13:36:52.546Z,39.24
2024-02-12T13:37:55.162Z,39.37
2024-02-12T13:38:59.782Z,38.21
2024-02-12T13:40:06.615Z,37.87
2024-02-12T13:41:12.495Z,37.81
2024-02-12T13:42:16.276Z,38.58
2024-02-12T13:43:22.591Z,39.34
2024-02-12T13:44:26.233Z,40.29